sensor_id;sensor_type;location;lat;lon;timestamp;P1;durP1;ratioP1;P2;durP2;ratioP2
17177;SDS011;8704;52.006;4.374;2023-07-31T00:00:11;33.58;;;11.80;;
17177;SDS011;8704;52.006;4.374;2023-07-31T00:02:40;32.47;;;12.23;;
17177;SDS011;8704;52.006;4.374;2023-07-31T00:05:10;31.20;;;11.52;;
17177;SDS011;8704;52.006;4.374;2023-07-31T00:07:39;32.78;;;12.65;;
17177;SDS011;8704;52.006;4.374;2023-07-31T00:10:07;33.28;;;11.55;;
17177;SDS011;8704;52.006;4.374;2023-07-31T00:12:35;35.58;;;13.18;;
17177;SDS011;8704;52.006;4.374;2023-07-31T00:15:05;35.92;;;13.38;;
17177;SDS011;8704;52.006;4.374;2023-07-31T00:17:34;28.67;;;11.38;;
17177;SDS011;8704;52.006;4.374;2023-07-31T00:20:02;28.83;;;11.95;;
17177;SDS011;8704;52.006;4.374;2023-07-31T00:22:32;32.40;;;11.55;;
17177;SDS011;8704;52.006;4.374;2023-07-31T00:25:02;37.80;;;13.10;;
17177;SDS011;8704;52.006;4.374;2023-07-31T00:27:32;30.67;;;11.88;;
17177;SDS011;8704;52.006;4.374;2023-07-31T00:30:00;33.75;;;12.52;;
17177;SDS011;8704;52.006;4.374;2023-07-31T00:32:29;33.13;;;12.07;;
17177;SDS011;8704;52.006;4.374;2023-07-31T00:34:57;32.55;;;12.25;;
17177;SDS011;8704;52.006;4.374;2023-07-31T00:37:25;34.30;;;12.32;;
17177;SDS011;8704;52.006;4.374;2023-07-31T00:39:54;33.58;;;13.02;;
17177;SDS011;8704;52.006;4.374;2023-07-31T00:42:23;37.25;;;12.18;;
17177;SDS011;8704;52.006;4.374;2023-07-31T00:44:52;36.65;;;13.70;;
17177;SDS011;8704;52.006;4.374;2023-07-31T00:47:20;32.13;;;13.15;;
17177;SDS011;8704;52.006;4.374;2023-07-31T00:49:48;35.20;;;12.50;;
17177;SDS011;8704;52.006;4.374;2023-07-31T00:52:17;34.20;;;12.13;;
17177;SDS011;8704;52.006;4.374;2023-07-31T00:54:46;26.35;;;10.82;;
17177;SDS011;8704;52.006;4.374;2023-07-31T00:57:17;29.27;;;11.23;;
17177;SDS011;8704;52.006;4.374;2023-07-31T00:59:45;30.90;;;11.55;;
17177;SDS011;8704;52.006;4.374;2023-07-31T01:02:14;23.38;;;9.63;;
17177;SDS011;8704;52.006;4.374;2023-07-31T01:04:42;23.02;;;8.70;;
17177;SDS011;8704;52.006;4.374;2023-07-31T01:07:12;20.60;;;9.45;;
17177;SDS011;8704;52.006;4.374;2023-07-31T01:09:49;21.50;;;9.82;;
17177;SDS011;8704;52.006;4.374;2023-07-31T01:12:23;24.30;;;9.68;;
17177;SDS011;8704;52.006;4.374;2023-07-31T01:15:01;27.05;;;11.68;;
17177;SDS011;8704;52.006;4.374;2023-07-31T01:17:30;29.90;;;12.18;;
17177;SDS011;8704;52.006;4.374;2023-07-31T01:20:00;30.70;;;11.60;;
17177;SDS011;8704;52.006;4.374;2023-07-31T01:22:36;36.28;;;13.25;;
17177;SDS011;8704;52.006;4.374;2023-07-31T01:25:19;34.35;;;12.27;;
17177;SDS011;8704;52.006;4.374;2023-07-31T01:28:02;41.55;;;13.40;;
17177;SDS011;8704;52.006;4.374;2023-07-31T01:30:37;29.65;;;12.20;;
17177;SDS011;8704;52.006;4.374;2023-07-31T01:33:10;35.53;;;11.98;;
17177;SDS011;8704;52.006;4.374;2023-07-31T01:35:39;33.92;;;12.65;;
17177;SDS011;8704;52.006;4.374;2023-07-31T01:38:07;34.63;;;12.48;;
17177;SDS011;8704;52.006;4.374;2023-07-31T01:40:35;30.30;;;11.25;;
17177;SDS011;8704;52.006;4.374;2023-07-31T01:43:04;32.33;;;12.20;;
17177;SDS011;8704;52.006;4.374;2023-07-31T01:45:33;35.28;;;11.23;;
17177;SDS011;8704;52.006;4.374;2023-07-31T01:48:01;37.15;;;11.70;;
17177;SDS011;8704;52.006;4.374;2023-07-31T01:50:29;33.10;;;11.60;;
17177;SDS011;8704;52.006;4.374;2023-07-31T01:52:57;30.98;;;11.32;;
17177;SDS011;8704;52.006;4.374;2023-07-31T01:55:25;29.10;;;11.70;;
17177;SDS011;8704;52.006;4.374;2023-07-31T01:57:53;32.95;;;11.40;;
17177;SDS011;8704;52.006;4.374;2023-07-31T02:00:23;31.67;;;11.80;;
17177;SDS011;8704;52.006;4.374;2023-07-31T02:02:51;35.50;;;12.85;;
17177;SDS011;8704;52.006;4.374;2023-07-31T02:05:19;37.28;;;12.63;;
17177;SDS011;8704;52.006;4.374;2023-07-31T02:07:47;35.00;;;12.18;;
17177;SDS011;8704;52.006;4.374;2023-07-31T02:10:16;37.38;;;14.23;;
17177;SDS011;8704;52.006;4.374;2023-07-31T02:12:44;32.75;;;11.95;;
17177;SDS011;8704;52.006;4.374;2023-07-31T02:15:12;33.22;;;12.60;;
17177;SDS011;8704;52.006;4.374;2023-07-31T02:17:41;40.35;;;13.38;;
17177;SDS011;8704;52.006;4.374;2023-07-31T02:20:10;35.35;;;12.50;;
17177;SDS011;8704;52.006;4.374;2023-07-31T02:22:38;34.03;;;11.45;;
17177;SDS011;8704;52.006;4.374;2023-07-31T02:25:08;31.40;;;12.32;;
17177;SDS011;8704;52.006;4.374;2023-07-31T02:27:36;37.20;;;11.70;;
17177;SDS011;8704;52.006;4.374;2023-07-31T02:30:04;29.83;;;11.75;;
17177;SDS011;8704;52.006;4.374;2023-07-31T02:32:33;36.22;;;12.48;;
17177;SDS011;8704;52.006;4.374;2023-07-31T02:35:03;36.75;;;11.18;;
17177;SDS011;8704;52.006;4.374;2023-07-31T02:37:31;31.52;;;10.18;;
17177;SDS011;8704;52.006;4.374;2023-07-31T02:40:01;31.88;;;10.63;;
17177;SDS011;8704;52.006;4.374;2023-07-31T02:42:29;32.78;;;10.88;;
17177;SDS011;8704;52.006;4.374;2023-07-31T02:44:57;30.38;;;10.40;;
17177;SDS011;8704;52.006;4.374;2023-07-31T02:47:25;23.98;;;9.73;;
17177;SDS011;8704;52.006;4.374;2023-07-31T02:49:53;36.72;;;11.18;;
17177;SDS011;8704;52.006;4.374;2023-07-31T02:52:23;38.03;;;11.75;;
17177;SDS011;8704;52.006;4.374;2023-07-31T02:54:52;31.88;;;11.10;;
17177;SDS011;8704;52.006;4.374;2023-07-31T02:57:20;27.23;;;10.60;;
17177;SDS011;8704;52.006;4.374;2023-07-31T02:59:48;30.42;;;11.45;;
17177;SDS011;8704;52.006;4.374;2023-07-31T03:02:16;23.98;;;10.70;;
17177;SDS011;8704;52.006;4.374;2023-07-31T03:04:44;35.15;;;11.90;;
17177;SDS011;8704;52.006;4.374;2023-07-31T03:07:12;37.28;;;12.30;;
17177;SDS011;8704;52.006;4.374;2023-07-31T03:09:42;27.63;;;11.38;;
17177;SDS011;8704;52.006;4.374;2023-07-31T03:12:10;33.25;;;11.50;;
17177;SDS011;8704;52.006;4.374;2023-07-31T03:14:38;30.88;;;10.82;;
17177;SDS011;8704;52.006;4.374;2023-07-31T03:17:06;26.67;;;10.57;;
17177;SDS011;8704;52.006;4.374;2023-07-31T03:19:35;27.05;;;10.65;;
17177;SDS011;8704;52.006;4.374;2023-07-31T03:22:03;34.70;;;11.75;;
17177;SDS011;8704;52.006;4.374;2023-07-31T03:24:31;34.22;;;10.70;;
17177;SDS011;8704;52.006;4.374;2023-07-31T03:27:01;31.65;;;10.93;;
17177;SDS011;8704;52.006;4.374;2023-07-31T03:29:29;27.17;;;10.15;;
17177;SDS011;8704;52.006;4.374;2023-07-31T03:31:57;31.35;;;10.88;;
17177;SDS011;8704;52.006;4.374;2023-07-31T03:34:25;33.72;;;11.35;;
17177;SDS011;8704;52.006;4.374;2023-07-31T03:36:53;29.20;;;10.88;;
17177;SDS011;8704;52.006;4.374;2023-07-31T03:39:21;36.60;;;11.10;;
17177;SDS011;8704;52.006;4.374;2023-07-31T03:41:49;22.67;;;8.30;;
17177;SDS011;8704;52.006;4.374;2023-07-31T03:44:19;25.23;;;8.63;;
17177;SDS011;8704;52.006;4.374;2023-07-31T03:46:47;18.70;;;8.20;;
17177;SDS011;8704;52.006;4.374;2023-07-31T03:49:15;16.73;;;6.93;;
17177;SDS011;8704;52.006;4.374;2023-07-31T03:51:43;18.27;;;7.72;;
17177;SDS011;8704;52.006;4.374;2023-07-31T03:54:11;17.40;;;7.25;;
17177;SDS011;8704;52.006;4.374;2023-07-31T03:56:40;12.68;;;5.88;;
17177;SDS011;8704;52.006;4.374;2023-07-31T03:59:09;16.85;;;6.93;;
17177;SDS011;8704;52.006;4.374;2023-07-31T04:01:38;14.25;;;7.20;;
17177;SDS011;8704;52.006;4.374;2023-07-31T04:04:06;15.27;;;5.97;;
17177;SDS011;8704;52.006;4.374;2023-07-31T04:06:34;14.55;;;6.55;;
17177;SDS011;8704;52.006;4.374;2023-07-31T04:09:03;10.90;;;5.40;;
17177;SDS011;8704;52.006;4.374;2023-07-31T04:11:31;17.77;;;6.20;;
17177;SDS011;8704;52.006;4.374;2023-07-31T04:13:59;12.00;;;6.50;;
17177;SDS011;8704;52.006;4.374;2023-07-31T04:16:27;10.32;;;5.20;;
17177;SDS011;8704;52.006;4.374;2023-07-31T04:18:57;9.57;;;5.13;;
17177;SDS011;8704;52.006;4.374;2023-07-31T04:21:27;7.73;;;4.60;;
17177;SDS011;8704;52.006;4.374;2023-07-31T04:23:55;13.25;;;5.40;;
17177;SDS011;8704;52.006;4.374;2023-07-31T04:26:24;9.27;;;5.40;;
17177;SDS011;8704;52.006;4.374;2023-07-31T04:28:52;13.43;;;5.63;;
17177;SDS011;8704;52.006;4.374;2023-07-31T04:31:21;8.48;;;5.20;;
17177;SDS011;8704;52.006;4.374;2023-07-31T04:33:49;6.50;;;4.45;;
17177;SDS011;8704;52.006;4.374;2023-07-31T04:36:20;7.47;;;4.68;;
17177;SDS011;8704;52.006;4.374;2023-07-31T04:38:49;7.63;;;4.90;;
17177;SDS011;8704;52.006;4.374;2023-07-31T04:41:17;6.80;;;4.30;;
17177;SDS011;8704;52.006;4.374;2023-07-31T04:43:45;6.05;;;4.65;;
17177;SDS011;8704;52.006;4.374;2023-07-31T04:46:14;6.53;;;4.45;;
17177;SDS011;8704;52.006;4.374;2023-07-31T04:48:45;7.47;;;5.25;;
17177;SDS011;8704;52.006;4.374;2023-07-31T04:51:13;9.65;;;5.65;;
17177;SDS011;8704;52.006;4.374;2023-07-31T04:53:43;10.93;;;5.25;;
17177;SDS011;8704;52.006;4.374;2023-07-31T04:56:11;9.23;;;5.95;;
17177;SDS011;8704;52.006;4.374;2023-07-31T04:58:40;11.07;;;5.82;;
17177;SDS011;8704;52.006;4.374;2023-07-31T05:01:08;11.77;;;6.30;;
17177;SDS011;8704;52.006;4.374;2023-07-31T05:03:36;10.45;;;6.13;;
17177;SDS011;8704;52.006;4.374;2023-07-31T05:06:04;13.27;;;5.55;;
17177;SDS011;8704;52.006;4.374;2023-07-31T05:08:32;8.75;;;5.22;;
17177;SDS011;8704;52.006;4.374;2023-07-31T05:11:02;11.07;;;5.70;;
17177;SDS011;8704;52.006;4.374;2023-07-31T05:13:30;8.55;;;5.70;;
17177;SDS011;8704;52.006;4.374;2023-07-31T05:15:58;8.02;;;4.95;;
17177;SDS011;8704;52.006;4.374;2023-07-31T05:18:28;10.02;;;5.20;;
17177;SDS011;8704;52.006;4.374;2023-07-31T05:20:57;10.05;;;5.05;;
17177;SDS011;8704;52.006;4.374;2023-07-31T05:23:25;9.43;;;5.18;;
17177;SDS011;8704;52.006;4.374;2023-07-31T05:25:53;8.43;;;5.18;;
17177;SDS011;8704;52.006;4.374;2023-07-31T05:28:22;15.00;;;5.55;;
17177;SDS011;8704;52.006;4.374;2023-07-31T05:30:50;9.02;;;5.32;;
17177;SDS011;8704;52.006;4.374;2023-07-31T05:33:19;8.90;;;5.30;;
17177;SDS011;8704;52.006;4.374;2023-07-31T05:35:48;7.25;;;5.60;;
17177;SDS011;8704;52.006;4.374;2023-07-31T05:38:16;10.77;;;4.70;;
17177;SDS011;8704;52.006;4.374;2023-07-31T05:40:44;7.90;;;4.65;;
17177;SDS011;8704;52.006;4.374;2023-07-31T05:43:12;10.95;;;5.10;;
17177;SDS011;8704;52.006;4.374;2023-07-31T05:45:42;8.90;;;4.60;;
17177;SDS011;8704;52.006;4.374;2023-07-31T05:48:10;6.38;;;4.55;;
17177;SDS011;8704;52.006;4.374;2023-07-31T05:50:39;6.47;;;3.85;;
17177;SDS011;8704;52.006;4.374;2023-07-31T05:53:07;6.60;;;4.15;;
17177;SDS011;8704;52.006;4.374;2023-07-31T05:55:36;7.97;;;4.20;;
17177;SDS011;8704;52.006;4.374;2023-07-31T05:58:04;4.85;;;3.83;;
17177;SDS011;8704;52.006;4.374;2023-07-31T06:00:32;7.85;;;4.07;;
17177;SDS011;8704;52.006;4.374;2023-07-31T06:03:02;9.20;;;4.70;;
17177;SDS011;8704;52.006;4.374;2023-07-31T06:05:31;9.75;;;5.10;;
17177;SDS011;8704;52.006;4.374;2023-07-31T06:07:59;6.40;;;3.45;;
17177;SDS011;8704;52.006;4.374;2023-07-31T06:10:27;6.13;;;3.78;;
17177;SDS011;8704;52.006;4.374;2023-07-31T06:12:55;7.15;;;3.90;;
17177;SDS011;8704;52.006;4.374;2023-07-31T06:15:23;5.38;;;3.70;;
17177;SDS011;8704;52.006;4.374;2023-07-31T06:17:51;5.03;;;2.97;;
17177;SDS011;8704;52.006;4.374;2023-07-31T06:20:22;4.80;;;3.35;;
17177;SDS011;8704;52.006;4.374;2023-07-31T06:22:50;5.18;;;2.80;;
17177;SDS011;8704;52.006;4.374;2023-07-31T06:25:18;7.03;;;3.47;;
17177;SDS011;8704;52.006;4.374;2023-07-31T06:27:46;8.70;;;4.00;;
17177;SDS011;8704;52.006;4.374;2023-07-31T06:30:15;7.03;;;3.53;;
17177;SDS011;8704;52.006;4.374;2023-07-31T06:32:43;7.10;;;3.97;;
17177;SDS011;8704;52.006;4.374;2023-07-31T06:35:11;5.55;;;3.30;;
17177;SDS011;8704;52.006;4.374;2023-07-31T06:37:40;3.80;;;2.75;;
17177;SDS011;8704;52.006;4.374;2023-07-31T06:40:10;4.88;;;2.78;;
17177;SDS011;8704;52.006;4.374;2023-07-31T06:42:39;3.13;;;2.58;;
17177;SDS011;8704;52.006;4.374;2023-07-31T06:45:07;3.33;;;2.60;;
17177;SDS011;8704;52.006;4.374;2023-07-31T06:47:36;4.68;;;3.22;;
17177;SDS011;8704;52.006;4.374;2023-07-31T06:50:04;5.45;;;3.08;;
17177;SDS011;8704;52.006;4.374;2023-07-31T06:52:33;4.47;;;2.83;;
17177;SDS011;8704;52.006;4.374;2023-07-31T06:55:03;3.90;;;3.40;;
17177;SDS011;8704;52.006;4.374;2023-07-31T06:57:43;4.38;;;3.13;;
17177;SDS011;8704;52.006;4.374;2023-07-31T07:00:11;5.05;;;3.00;;
17177;SDS011;8704;52.006;4.374;2023-07-31T07:02:40;4.22;;;3.03;;
17177;SDS011;8704;52.006;4.374;2023-07-31T07:05:08;3.72;;;3.22;;
17177;SDS011;8704;52.006;4.374;2023-07-31T07:07:36;3.83;;;2.80;;
17177;SDS011;8704;52.006;4.374;2023-07-31T07:10:06;7.25;;;3.22;;
17177;SDS011;8704;52.006;4.374;2023-07-31T07:12:35;3.30;;;2.30;;
17177;SDS011;8704;52.006;4.374;2023-07-31T07:15:04;6.63;;;2.90;;
17177;SDS011;8704;52.006;4.374;2023-07-31T07:17:32;4.00;;;2.70;;
17177;SDS011;8704;52.006;4.374;2023-07-31T07:20:01;6.68;;;2.75;;
17177;SDS011;8704;52.006;4.374;2023-07-31T07:22:29;2.65;;;2.08;;
17177;SDS011;8704;52.006;4.374;2023-07-31T07:24:57;4.20;;;2.90;;
17177;SDS011;8704;52.006;4.374;2023-07-31T07:27:27;3.38;;;2.63;;
17177;SDS011;8704;52.006;4.374;2023-07-31T07:29:55;3.15;;;2.65;;
17177;SDS011;8704;52.006;4.374;2023-07-31T07:32:23;4.97;;;2.53;;
17177;SDS011;8704;52.006;4.374;2023-07-31T07:34:51;4.10;;;2.45;;
17177;SDS011;8704;52.006;4.374;2023-07-31T07:37:19;5.03;;;2.72;;
17177;SDS011;8704;52.006;4.374;2023-07-31T07:39:48;4.80;;;2.60;;
17177;SDS011;8704;52.006;4.374;2023-07-31T07:42:16;4.70;;;2.92;;
17177;SDS011;8704;52.006;4.374;2023-07-31T07:44:45;6.45;;;3.10;;
17177;SDS011;8704;52.006;4.374;2023-07-31T07:47:13;4.57;;;3.17;;
17177;SDS011;8704;52.006;4.374;2023-07-31T07:49:42;5.55;;;3.20;;
17177;SDS011;8704;52.006;4.374;2023-07-31T07:52:18;7.07;;;4.00;;
17177;SDS011;8704;52.006;4.374;2023-07-31T07:54:46;7.22;;;3.97;;
17177;SDS011;8704;52.006;4.374;2023-07-31T07:57:14;10.77;;;4.78;;
17177;SDS011;8704;52.006;4.374;2023-07-31T07:59:42;7.97;;;4.45;;
17177;SDS011;8704;52.006;4.374;2023-07-31T08:02:12;11.85;;;4.82;;
17177;SDS011;8704;52.006;4.374;2023-07-31T08:04:40;16.38;;;5.28;;
17177;SDS011;8704;52.006;4.374;2023-07-31T08:07:10;15.88;;;6.00;;
17177;SDS011;8704;52.006;4.374;2023-07-31T08:09:41;12.85;;;5.53;;
17177;SDS011;8704;52.006;4.374;2023-07-31T08:12:09;11.93;;;5.43;;
17177;SDS011;8704;52.006;4.374;2023-07-31T08:14:40;21.88;;;6.38;;
17177;SDS011;8704;52.006;4.374;2023-07-31T08:17:08;13.48;;;5.70;;
17177;SDS011;8704;52.006;4.374;2023-07-31T08:19:38;23.63;;;6.10;;
17177;SDS011;8704;52.006;4.374;2023-07-31T08:22:07;21.30;;;6.10;;
17177;SDS011;8704;52.006;4.374;2023-07-31T08:24:35;21.83;;;6.30;;
17177;SDS011;8704;52.006;4.374;2023-07-31T08:27:03;16.02;;;5.18;;
17177;SDS011;8704;52.006;4.374;2023-07-31T08:29:33;12.82;;;5.13;;
17177;SDS011;8704;52.006;4.374;2023-07-31T08:32:01;14.50;;;4.68;;
17177;SDS011;8704;52.006;4.374;2023-07-31T08:34:29;14.73;;;4.43;;
17177;SDS011;8704;52.006;4.374;2023-07-31T08:36:58;15.88;;;5.22;;
17177;SDS011;8704;52.006;4.374;2023-07-31T08:39:27;13.10;;;5.25;;
17177;SDS011;8704;52.006;4.374;2023-07-31T08:41:57;16.58;;;4.95;;
17177;SDS011;8704;52.006;4.374;2023-07-31T08:44:26;17.40;;;5.40;;
17177;SDS011;8704;52.006;4.374;2023-07-31T08:46:54;17.73;;;5.85;;
17177;SDS011;8704;52.006;4.374;2023-07-31T08:49:23;22.10;;;5.50;;
17177;SDS011;8704;52.006;4.374;2023-07-31T08:51:52;16.98;;;5.78;;
17177;SDS011;8704;52.006;4.374;2023-07-31T08:54:22;21.30;;;5.53;;
17177;SDS011;8704;52.006;4.374;2023-07-31T08:56:50;18.60;;;6.18;;
17177;SDS011;8704;52.006;4.374;2023-07-31T08:59:20;21.63;;;6.10;;
17177;SDS011;8704;52.006;4.374;2023-07-31T09:01:50;18.20;;;5.68;;
17177;SDS011;8704;52.006;4.374;2023-07-31T09:04:23;13.82;;;5.38;;
17177;SDS011;8704;52.006;4.374;2023-07-31T09:06:52;17.58;;;5.88;;
17177;SDS011;8704;52.006;4.374;2023-07-31T09:09:30;17.23;;;5.10;;
17177;SDS011;8704;52.006;4.374;2023-07-31T09:11:59;17.38;;;5.22;;
17177;SDS011;8704;52.006;4.374;2023-07-31T09:14:28;16.48;;;4.90;;
17177;SDS011;8704;52.006;4.374;2023-07-31T09:16:56;17.55;;;5.20;;
17177;SDS011;8704;52.006;4.374;2023-07-31T09:19:26;11.07;;;3.97;;
17177;SDS011;8704;52.006;4.374;2023-07-31T09:21:56;14.48;;;4.70;;
17177;SDS011;8704;52.006;4.374;2023-07-31T09:24:25;15.65;;;4.72;;
17177;SDS011;8704;52.006;4.374;2023-07-31T09:26:56;14.07;;;3.95;;
17177;SDS011;8704;52.006;4.374;2023-07-31T09:29:26;12.77;;;4.10;;
17177;SDS011;8704;52.006;4.374;2023-07-31T09:31:56;13.10;;;4.47;;
17177;SDS011;8704;52.006;4.374;2023-07-31T09:34:28;14.05;;;4.30;;
17177;SDS011;8704;52.006;4.374;2023-07-31T09:36:58;15.40;;;4.93;;
17177;SDS011;8704;52.006;4.374;2023-07-31T09:39:29;14.27;;;4.22;;
17177;SDS011;8704;52.006;4.374;2023-07-31T09:41:59;13.23;;;4.25;;
17177;SDS011;8704;52.006;4.374;2023-07-31T09:47:20;13.98;;;4.68;;
17177;SDS011;8704;52.006;4.374;2023-07-31T09:49:51;15.07;;;4.17;;
17177;SDS011;8704;52.006;4.374;2023-07-31T09:52:21;10.40;;;3.58;;
17177;SDS011;8704;52.006;4.374;2023-07-31T09:54:49;12.40;;;3.70;;
17177;SDS011;8704;52.006;4.374;2023-07-31T09:57:21;13.55;;;3.92;;
17177;SDS011;8704;52.006;4.374;2023-07-31T09:59:50;10.85;;;3.75;;
17177;SDS011;8704;52.006;4.374;2023-07-31T10:02:21;9.15;;;3.47;;
17177;SDS011;8704;52.006;4.374;2023-07-31T10:04:50;10.20;;;4.07;;
17177;SDS011;8704;52.006;4.374;2023-07-31T10:07:19;11.05;;;3.25;;
17177;SDS011;8704;52.006;4.374;2023-07-31T10:09:51;11.40;;;3.95;;
17177;SDS011;8704;52.006;4.374;2023-07-31T10:12:22;14.23;;;4.50;;
17177;SDS011;8704;52.006;4.374;2023-07-31T10:14:54;16.50;;;5.32;;
17177;SDS011;8704;52.006;4.374;2023-07-31T10:17:26;14.70;;;4.70;;
17177;SDS011;8704;52.006;4.374;2023-07-31T10:19:54;14.15;;;4.82;;
17177;SDS011;8704;52.006;4.374;2023-07-31T10:22:25;16.88;;;5.10;;
17177;SDS011;8704;52.006;4.374;2023-07-31T10:24:54;19.15;;;5.30;;
17177;SDS011;8704;52.006;4.374;2023-07-31T10:27:26;14.90;;;4.97;;
17177;SDS011;8704;52.006;4.374;2023-07-31T10:29:55;16.20;;;5.88;;
17177;SDS011;8704;52.006;4.374;2023-07-31T10:32:25;17.90;;;5.25;;
17177;SDS011;8704;52.006;4.374;2023-07-31T10:34:54;15.10;;;5.03;;
17177;SDS011;8704;52.006;4.374;2023-07-31T10:37:23;13.90;;;4.93;;
17177;SDS011;8704;52.006;4.374;2023-07-31T10:39:59;19.10;;;4.90;;
17177;SDS011;8704;52.006;4.374;2023-07-31T10:42:32;15.63;;;4.22;;
17177;SDS011;8704;52.006;4.374;2023-07-31T10:45:02;13.32;;;4.97;;
17177;SDS011;8704;52.006;4.374;2023-07-31T10:52:59;15.65;;;4.43;;
17177;SDS011;8704;52.006;4.374;2023-07-31T10:55:29;13.23;;;4.25;;
17177;SDS011;8704;52.006;4.374;2023-07-31T10:58:06;10.98;;;3.95;;
17177;SDS011;8704;52.006;4.374;2023-07-31T11:00:36;9.70;;;4.15;;
17177;SDS011;8704;52.006;4.374;2023-07-31T11:03:06;12.75;;;3.58;;
17177;SDS011;8704;52.006;4.374;2023-07-31T11:05:42;14.85;;;4.30;;
17177;SDS011;8704;52.006;4.374;2023-07-31T11:08:20;11.13;;;4.35;;
17177;SDS011;8704;52.006;4.374;2023-07-31T11:10:50;13.60;;;4.20;;
17177;SDS011;8704;52.006;4.374;2023-07-31T11:13:21;12.75;;;4.32;;
17177;SDS011;8704;52.006;4.374;2023-07-31T11:15:49;15.15;;;4.28;;
17177;SDS011;8704;52.006;4.374;2023-07-31T11:18:18;17.23;;;4.25;;
17177;SDS011;8704;52.006;4.374;2023-07-31T11:20:49;13.05;;;3.05;;
17177;SDS011;8704;52.006;4.374;2023-07-31T11:23:17;14.23;;;3.88;;
17177;SDS011;8704;52.006;4.374;2023-07-31T11:25:48;10.45;;;3.63;;
17177;SDS011;8704;52.006;4.374;2023-07-31T11:28:18;11.63;;;3.70;;
17177;SDS011;8704;52.006;4.374;2023-07-31T11:30:48;12.68;;;3.78;;
17177;SDS011;8704;52.006;4.374;2023-07-31T11:33:16;10.68;;;3.75;;
17177;SDS011;8704;52.006;4.374;2023-07-31T11:35:45;9.82;;;3.75;;
17177;SDS011;8704;52.006;4.374;2023-07-31T11:38:20;15.20;;;3.80;;
17177;SDS011;8704;52.006;4.374;2023-07-31T11:40:51;10.80;;;3.60;;
17177;SDS011;8704;52.006;4.374;2023-07-31T11:43:19;13.95;;;3.65;;
17177;SDS011;8704;52.006;4.374;2023-07-31T11:45:50;10.82;;;3.55;;
17177;SDS011;8704;52.006;4.374;2023-07-31T11:48:20;10.82;;;3.15;;
17177;SDS011;8704;52.006;4.374;2023-07-31T11:50:53;14.90;;;3.15;;
17177;SDS011;8704;52.006;4.374;2023-07-31T11:53:25;11.02;;;3.08;;
17177;SDS011;8704;52.006;4.374;2023-07-31T11:55:57;8.23;;;2.95;;
17177;SDS011;8704;52.006;4.374;2023-07-31T11:58:26;7.68;;;2.60;;
17177;SDS011;8704;52.006;4.374;2023-07-31T12:00:57;8.95;;;2.95;;
17177;SDS011;8704;52.006;4.374;2023-07-31T12:03:26;8.85;;;2.72;;
17177;SDS011;8704;52.006;4.374;2023-07-31T12:05:55;9.25;;;2.70;;
17177;SDS011;8704;52.006;4.374;2023-07-31T12:08:23;7.47;;;2.83;;
17177;SDS011;8704;52.006;4.374;2023-07-31T12:10:52;8.55;;;3.03;;
17177;SDS011;8704;52.006;4.374;2023-07-31T12:13:22;12.75;;;3.25;;
17177;SDS011;8704;52.006;4.374;2023-07-31T12:15:53;13.07;;;3.17;;
17177;SDS011;8704;52.006;4.374;2023-07-31T12:18:25;11.38;;;3.28;;
17177;SDS011;8704;52.006;4.374;2023-07-31T12:20:55;9.75;;;3.05;;
17177;SDS011;8704;52.006;4.374;2023-07-31T12:23:25;7.93;;;2.70;;
17177;SDS011;8704;52.006;4.374;2023-07-31T12:26:00;8.63;;;2.67;;
17177;SDS011;8704;52.006;4.374;2023-07-31T12:28:29;10.35;;;3.15;;
17177;SDS011;8704;52.006;4.374;2023-07-31T12:31:01;8.63;;;2.95;;
17177;SDS011;8704;52.006;4.374;2023-07-31T12:33:34;8.35;;;3.20;;
17177;SDS011;8704;52.006;4.374;2023-07-31T12:36:03;8.07;;;2.65;;
17177;SDS011;8704;52.006;4.374;2023-07-31T12:38:34;8.20;;;2.83;;
17177;SDS011;8704;52.006;4.374;2023-07-31T12:41:03;7.53;;;2.60;;
17177;SDS011;8704;52.006;4.374;2023-07-31T12:43:32;7.28;;;2.55;;
17177;SDS011;8704;52.006;4.374;2023-07-31T12:46:00;5.70;;;2.15;;
17177;SDS011;8704;52.006;4.374;2023-07-31T12:48:29;4.70;;;2.30;;
17177;SDS011;8704;52.006;4.374;2023-07-31T12:50:59;7.63;;;2.15;;
17177;SDS011;8704;52.006;4.374;2023-07-31T12:53:30;4.95;;;2.10;;
17177;SDS011;8704;52.006;4.374;2023-07-31T12:55:58;5.50;;;2.13;;
17177;SDS011;8704;52.006;4.374;2023-07-31T12:58:26;5.82;;;2.55;;
17177;SDS011;8704;52.006;4.374;2023-07-31T13:00:57;3.80;;;2.10;;
17177;SDS011;8704;52.006;4.374;2023-07-31T13:03:25;5.05;;;2.20;;
17177;SDS011;8704;52.006;4.374;2023-07-31T13:05:53;4.63;;;2.00;;
17177;SDS011;8704;52.006;4.374;2023-07-31T13:08:23;4.93;;;2.53;;
17177;SDS011;8704;52.006;4.374;2023-07-31T13:10:51;5.95;;;2.40;;
17177;SDS011;8704;52.006;4.374;2023-07-31T13:13:19;3.58;;;2.10;;
17177;SDS011;8704;52.006;4.374;2023-07-31T13:15:48;3.83;;;2.20;;
17177;SDS011;8704;52.006;4.374;2023-07-31T13:18:16;5.65;;;2.22;;
17177;SDS011;8704;52.006;4.374;2023-07-31T13:20:45;5.43;;;2.03;;
17177;SDS011;8704;52.006;4.374;2023-07-31T13:23:13;3.65;;;1.92;;
17177;SDS011;8704;52.006;4.374;2023-07-31T13:25:43;3.50;;;1.88;;
17177;SDS011;8704;52.006;4.374;2023-07-31T13:28:11;3.95;;;2.10;;
17177;SDS011;8704;52.006;4.374;2023-07-31T13:30:39;4.78;;;2.10;;
17177;SDS011;8704;52.006;4.374;2023-07-31T13:33:08;5.15;;;2.08;;
17177;SDS011;8704;52.006;4.374;2023-07-31T13:35:58;4.95;;;2.05;;
17177;SDS011;8704;52.006;4.374;2023-07-31T13:38:26;5.30;;;2.00;;
17177;SDS011;8704;52.006;4.374;2023-07-31T13:40:55;6.78;;;2.20;;
17177;SDS011;8704;52.006;4.374;2023-07-31T13:43:26;4.13;;;1.60;;
17177;SDS011;8704;52.006;4.374;2023-07-31T13:45:54;5.85;;;1.52;;
17177;SDS011;8704;52.006;4.374;2023-07-31T13:48:23;3.17;;;1.42;;
17177;SDS011;8704;52.006;4.374;2023-07-31T13:50:51;2.30;;;1.08;;
17177;SDS011;8704;52.006;4.374;2023-07-31T13:53:19;2.10;;;1.10;;
17177;SDS011;8704;52.006;4.374;2023-07-31T13:55:47;2.75;;;1.10;;
17177;SDS011;8704;52.006;4.374;2023-07-31T13:58:17;3.15;;;1.40;;
17177;SDS011;8704;52.006;4.374;2023-07-31T14:00:45;4.57;;;1.35;;
17177;SDS011;8704;52.006;4.374;2023-07-31T14:03:13;2.08;;;1.00;;
17177;SDS011;8704;52.006;4.374;2023-07-31T14:05:42;4.22;;;1.30;;
17177;SDS011;8704;52.006;4.374;2023-07-31T14:08:10;2.47;;;1.30;;
17177;SDS011;8704;52.006;4.374;2023-07-31T14:10:38;2.80;;;1.10;;
17177;SDS011;8704;52.006;4.374;2023-07-31T14:13:06;2.10;;;1.10;;
17177;SDS011;8704;52.006;4.374;2023-07-31T14:15:35;1.95;;;1.00;;
17177;SDS011;8704;52.006;4.374;2023-07-31T14:18:03;5.40;;;1.40;;
17177;SDS011;8704;52.006;4.374;2023-07-31T14:20:32;3.63;;;1.40;;
17177;SDS011;8704;52.006;4.374;2023-07-31T14:23:00;3.15;;;1.25;;
17177;SDS011;8704;52.006;4.374;2023-07-31T14:25:29;2.10;;;1.30;;
17177;SDS011;8704;52.006;4.374;2023-07-31T14:27:57;2.55;;;1.20;;
17177;SDS011;8704;52.006;4.374;2023-07-31T14:30:25;3.13;;;1.45;;
17177;SDS011;8704;52.006;4.374;2023-07-31T14:32:55;3.67;;;1.60;;
17177;SDS011;8704;52.006;4.374;2023-07-31T14:35:23;4.40;;;1.50;;
17177;SDS011;8704;52.006;4.374;2023-07-31T14:37:51;1.77;;;1.13;;
17177;SDS011;8704;52.006;4.374;2023-07-31T14:40:21;2.72;;;1.30;;
17177;SDS011;8704;52.006;4.374;2023-07-31T14:42:49;3.60;;;1.38;;
17177;SDS011;8704;52.006;4.374;2023-07-31T14:45:17;2.38;;;1.33;;
17177;SDS011;8704;52.006;4.374;2023-07-31T14:47:45;3.10;;;1.52;;
17177;SDS011;8704;52.006;4.374;2023-07-31T14:50:15;2.05;;;1.40;;
17177;SDS011;8704;52.006;4.374;2023-07-31T14:52:46;4.35;;;1.38;;
17177;SDS011;8704;52.006;4.374;2023-07-31T14:55:14;1.95;;;1.33;;
17177;SDS011;8704;52.006;4.374;2023-07-31T14:57:42;3.88;;;1.60;;
17177;SDS011;8704;52.006;4.374;2023-07-31T15:00:11;3.15;;;1.20;;
17177;SDS011;8704;52.006;4.374;2023-07-31T15:02:40;2.30;;;1.10;;
17177;SDS011;8704;52.006;4.374;2023-07-31T15:05:08;1.75;;;1.17;;
17177;SDS011;8704;52.006;4.374;2023-07-31T15:07:38;2.45;;;1.25;;
17177;SDS011;8704;52.006;4.374;2023-07-31T15:10:07;3.35;;;1.17;;